Terminal Aerodrome Forecast
Issued by NWS Topeka, KS

Home | Current Version | Previous Version | Text Only | Print | Product List | Glossary Off
Versions: 1 2 3 4 5 6 7 8 9 10 11 12 13 14 15 16 17 18 19 20 21

000
FTUS43 KTOP 241100
TAFTOP
TAF
KTOP 241120Z 2412/2512 VRB03KT P6SM SCT007 BKN040
     FM241800 16012KT P6SM -SHRA BKN030
      TEMPO 2422/2502 4SM -TSRA OVC015CB
     FM250200 15008KT 4SM -RA BR OVC012
     FM250600 18006KT P6SM SCT012 BKN040=

USA.gov is the U.S. government's official web portal to all federal, state and local government web resources and services.